createdAt,value
2019-06-01T00:00:53.489Z,49.00
2019-06-01T00:03:21.174Z,49.10
2019-06-01T00:05:48.538Z,49.20
2019-06-01T00:08:15.236Z,49.30
2019-06-01T00:10:42.958Z,49.30
2019-06-01T00:13:09.531Z,49.40
2019-06-01T00:15:37.023Z,49.40
2019-06-01T00:18:03.398Z,49.50
2019-06-01T00:20:29.658Z,49.60
2019-06-01T00:22:55.958Z,49.50
2019-06-01T00:25:22.331Z,49.60
2019-06-01T00:27:48.864Z,49.60
2019-06-01T00:30:26.551Z,49.70
2019-06-01T00:32:45.176Z,49.70
2019-06-01T00:35:11.707Z,49.70
2019-06-01T00:37:38.258Z,49.80
2019-06-01T00:40:05.943Z,49.90
2019-06-01T00:42:32.460Z,49.90
2019-06-01T00:44:58.828Z,50.00
2019-06-01T00:47:25.430Z,50.10
2019-06-01T00:49:53.086Z,50.20
2019-06-01T00:52:19.834Z,50.20
2019-06-01T00:54:47.242Z,50.30
2019-06-01T00:57:13.792Z,50.30
2019-06-01T00:59:40.490Z,50.30
2019-06-01T01:02:07.236Z,50.40
2019-06-01T01:04:34.622Z,50.50
2019-06-01T01:07:01.283Z,50.50
2019-06-01T01:09:28.018Z,50.60
2019-06-01T01:11:55.375Z,50.60
2019-06-01T01:14:22.141Z,50.70
2019-06-01T01:16:49.482Z,50.70
2019-06-01T01:19:17.079Z,50.70
2019-06-01T01:21:43.690Z,50.80
2019-06-01T01:24:10.080Z,50.80
2019-06-01T01:26:36.669Z,50.80
2019-06-01T01:29:03.706Z,51.00
2019-06-01T01:31:29.974Z,50.90
2019-06-01T01:33:57.537Z,50.90
2019-06-01T01:36:24.832Z,50.90
2019-06-01T01:38:52.293Z,51.00
2019-06-01T01:41:19.886Z,51.10
2019-06-01T01:43:46.329Z,51.10
2019-06-01T01:46:12.996Z,51.20
2019-06-01T01:48:39.367Z,51.20
2019-06-01T01:51:05.753Z,51.30
2019-06-01T01:53:33.407Z,51.30
2019-06-01T01:55:59.675Z,51.30
2019-06-01T01:58:30.266Z,50.90
2019-06-01T02:00:58.409Z,51.30
2019-06-01T02:03:24.834Z,51.30
2019-06-01T02:05:51.131Z,51.30
2019-06-01T02:08:17.570Z,51.40
2019-06-01T02:10:44.238Z,51.60
2019-06-01T02:13:10.731Z,51.60
2019-06-01T02:15:39.051Z,51.60
2019-06-01T02:18:05.534Z,51.60
2019-06-01T02:20:32.338Z,51.60
2019-06-01T02:22:58.965Z,51.60
2019-06-01T02:25:26.715Z,51.60
2019-06-01T02:27:53.212Z,51.70
2019-06-01T02:30:22.084Z,51.70
2019-06-01T02:32:48.585Z,52.00
2019-06-01T02:35:15.063Z,51.80
2019-06-01T02:37:42.466Z,51.80
2019-06-01T02:40:09.338Z,51.80
2019-06-01T02:42:35.740Z,51.90
2019-06-01T02:45:05.775Z,51.90
2019-06-01T02:47:32.282Z,52.00
2019-06-01T02:49:59.428Z,52.10
2019-06-01T02:52:26.260Z,52.10
2019-06-01T02:54:52.631Z,52.10
2019-06-01T02:57:19.294Z,52.20
2019-06-01T02:59:45.558Z,52.30
2019-06-01T03:02:14.963Z,52.40
2019-06-01T03:04:40.962Z,52.40
2019-06-01T03:07:08.772Z,52.40
2019-06-01T03:09:38.226Z,52.50
2019-06-01T03:12:06.603Z,52.40
2019-06-01T03:14:33.447Z,52.40
2019-06-01T03:17:00.028Z,52.50
2019-06-01T03:19:28.107Z,52.50
2019-06-01T03:21:59.558Z,52.60
2019-06-01T03:24:26.310Z,52.60
2019-06-01T03:26:53.575Z,52.60
2019-06-01T03:29:20.627Z,52.70
2019-06-01T03:31:47.602Z,52.80
2019-06-01T03:34:14.565Z,52.90
2019-06-01T03:36:41.751Z,53.10
2019-06-01T03:39:08.336Z,53.20
2019-06-01T03:41:34.939Z,53.30
2019-06-01T03:44:02.555Z,53.30
2019-06-01T03:46:29.759Z,53.70
2019-06-01T03:48:56.285Z,53.30
2019-06-01T03:51:22.779Z,53.30
2019-06-01T03:53:49.083Z,53.30
2019-06-01T03:56:15.730Z,53.30
2019-06-01T03:58:42.100Z,53.30
2019-06-01T04:01:09.163Z,53.30
2019-06-01T04:03:35.919Z,53.40
2019-06-01T04:06:03.331Z,53.50
2019-06-01T04:08:30.116Z,53.60
2019-06-01T04:10:56.515Z,53.60
2019-06-01T04:13:22.778Z,53.70
2019-06-01T04:15:49.250Z,53.80
2019-06-01T04:18:15.540Z,53.80
2019-06-01T04:20:41.945Z,53.90
2019-06-01T04:23:08.734Z,53.90
2019-06-01T04:25:35.049Z,54.00
2019-06-01T04:28:02.152Z,54.00
2019-06-01T04:30:29.765Z,54.10
2019-06-01T04:32:56.159Z,54.10
2019-06-01T04:35:22.731Z,54.20
2019-06-01T04:37:50.227Z,54.30
2019-06-01T04:40:16.594Z,54.30
2019-06-01T04:42:42.903Z,55.00
2019-06-01T04:45:10.802Z,54.60
2019-06-01T04:47:37.542Z,54.90
2019-06-01T04:50:04.587Z,54.90
2019-06-01T04:52:31.890Z,54.90
2019-06-01T04:54:58.498Z,55.10
2019-06-01T04:57:24.868Z,55.30
2019-06-01T04:59:51.163Z,55.40
2019-06-01T05:02:17.424Z,55.50
2019-06-01T05:04:43.796Z,55.50
2019-06-01T05:07:11.233Z,55.90
2019-06-01T05:09:37.685Z,55.70
2019-06-01T05:12:05.176Z,55.70
2019-06-01T05:14:31.750Z,55.80
2019-06-01T05:16:58.448Z,56.10
2019-06-01T05:19:24.834Z,56.00
2019-06-01T05:21:51.128Z,56.00
2019-06-01T05:24:17.648Z,56.10
2019-06-01T05:26:43.925Z,56.50
2019-06-01T05:29:11.649Z,56.30
2019-06-01T05:31:38.113Z,56.40
2019-06-01T05:34:05.194Z,56.30
2019-06-01T05:36:31.761Z,56.20
2019-06-01T05:38:58.400Z,56.30
2019-06-01T05:41:25.136Z,56.30
2019-06-01T05:43:51.719Z,56.20
2019-06-01T05:46:18.844Z,56.30
2019-06-01T05:48:46.543Z,56.30
2019-06-01T05:51:15.586Z,56.30
2019-06-01T05:53:41.147Z,56.30
2019-06-01T05:56:07.438Z,56.40
2019-06-01T05:58:34.064Z,56.70
2019-06-01T06:01:00.825Z,56.50
2019-06-01T06:03:39.974Z,56.50
2019-06-01T06:05:55.831Z,56.50
2019-06-01T06:08:22.393Z,56.60
2019-06-01T06:10:49.014Z,56.60
2019-06-01T06:13:15.439Z,56.80
2019-06-01T06:15:42.115Z,56.90
2019-06-01T06:18:08.478Z,57.00
2019-06-01T06:20:34.770Z,56.90
2019-06-01T06:23:01.171Z,57.00
2019-06-01T06:25:29.188Z,57.20
2019-06-01T06:27:55.949Z,57.40
2019-06-01T06:30:23.064Z,57.30
2019-06-01T06:32:49.635Z,57.50
2019-06-01T06:35:16.007Z,57.60
2019-06-01T06:37:42.504Z,57.30
2019-06-01T06:40:11.208Z,57.30
2019-06-01T06:42:37.850Z,57.20
2019-06-01T06:45:05.338Z,57.10
2019-06-01T06:47:31.835Z,57.20
2019-06-01T06:49:58.238Z,57.40
2019-06-01T06:52:25.753Z,57.50
2019-06-01T06:54:52.259Z,57.70
2019-06-01T06:57:18.693Z,57.50
2019-06-01T06:59:45.377Z,57.60
2019-06-01T07:02:12.063Z,57.40
2019-06-01T07:04:38.444Z,57.40
2019-06-01T07:07:04.926Z,57.40
2019-06-01T07:09:31.624Z,57.40
2019-06-01T07:11:57.999Z,57.40
2019-06-01T07:14:25.374Z,57.60
2019-06-01T07:16:51.879Z,57.80
2019-06-01T07:19:19.351Z,57.90
2019-06-01T07:21:45.875Z,57.90
2019-06-01T07:24:12.695Z,57.90
2019-06-01T07:26:39.409Z,58.00
2019-06-01T07:29:06.150Z,58.20
2019-06-01T07:31:32.786Z,58.10
2019-06-01T07:33:59.203Z,58.00
2019-06-01T07:36:26.716Z,58.50
2019-06-01T07:38:53.479Z,58.50
2019-06-01T07:41:20.657Z,58.60
2019-06-01T07:43:47.249Z,58.50
2019-06-01T07:46:13.618Z,58.30
2019-06-01T07:48:39.915Z,58.40
2019-06-01T07:51:06.515Z,58.40
2019-06-01T07:53:33.355Z,58.20
2019-06-01T07:55:59.630Z,58.10
2019-06-01T07:58:26.774Z,57.90
2019-06-01T08:00:53.590Z,57.80
2019-06-01T08:03:20.011Z,57.70
2019-06-01T08:05:46.751Z,57.50
2019-06-01T08:08:13.138Z,57.30
2019-06-01T08:10:39.738Z,57.20
2019-06-01T08:13:06.439Z,57.10
2019-06-01T08:15:32.977Z,57.00
2019-06-01T08:17:59.615Z,56.70
2019-06-01T08:20:26.185Z,56.40
2019-06-01T08:22:52.918Z,56.30
2019-06-01T08:25:19.353Z,56.30
2019-06-01T08:27:45.908Z,56.00
2019-06-01T08:30:12.717Z,56.00
2019-06-01T08:32:39.099Z,55.90
2019-06-01T08:35:09.044Z,55.60
2019-06-01T08:37:34.478Z,55.40
2019-06-01T08:40:04.084Z,55.30
2019-06-01T08:42:31.585Z,55.10
2019-06-01T08:44:58.397Z,54.90
2019-06-01T08:47:25.662Z,54.60
2019-06-01T08:49:52.463Z,54.70
2019-06-01T08:52:18.963Z,54.30
2019-06-01T08:54:45.692Z,54.30
2019-06-01T08:57:12.127Z,54.10
2019-06-01T08:59:38.837Z,54.10
2019-06-01T09:02:05.396Z,53.90
2019-06-01T09:04:32.818Z,53.70
2019-06-01T09:06:59.203Z,53.60
2019-06-01T09:09:26.816Z,53.20
2019-06-01T09:11:53.739Z,53.20
2019-06-01T09:14:20.281Z,53.10
2019-06-01T09:16:47.039Z,53.10
2019-06-01T09:19:14.095Z,53.20
2019-06-01T09:21:40.626Z,53.50
2019-06-01T09:24:07.476Z,52.30
2019-06-01T09:26:35.740Z,51.30
2019-06-01T09:29:03.223Z,51.70
2019-06-01T09:31:30.360Z,52.10
2019-06-01T09:33:56.820Z,52.90
2019-06-01T09:36:23.090Z,52.70
2019-06-01T09:38:49.383Z,52.30
2019-06-01T09:41:17.853Z,51.70
2019-06-01T09:43:44.343Z,50.50
2019-06-01T09:46:10.719Z,49.70
2019-06-01T09:48:37.827Z,48.90
2019-06-01T09:51:04.467Z,48.00
2019-06-01T09:53:32.417Z,47.60
2019-06-01T09:55:59.534Z,46.60
2019-06-01T09:58:25.843Z,45.90
2019-06-01T10:00:52.109Z,45.10
2019-06-01T10:03:18.507Z,44.50
2019-06-01T10:06:00.971Z,43.50
2019-06-01T10:08:14.746Z,42.40
2019-06-01T10:10:42.306Z,41.40
2019-06-01T10:13:09.120Z,40.70
2019-06-01T10:15:36.479Z,40.00
2019-06-01T10:18:03.382Z,39.20
2019-06-01T10:20:30.694Z,39.30
2019-06-01T10:22:57.854Z,38.30
2019-06-01T10:25:24.174Z,37.50
2019-06-01T10:27:50.840Z,37.50
2019-06-01T10:30:17.855Z,37.20
2019-06-01T10:32:44.285Z,36.90
2019-06-01T10:35:10.874Z,36.70
2019-06-01T10:37:39.506Z,36.40
2019-06-01T10:40:07.031Z,35.90
2019-06-01T10:42:35.983Z,35.50
2019-06-01T10:45:03.718Z,34.00
2019-06-01T10:47:30.175Z,34.10
2019-06-01T10:49:56.742Z,33.40
2019-06-01T10:52:23.144Z,34.10
2019-06-01T10:54:49.859Z,32.90
2019-06-01T10:57:16.455Z,31.40
2019-06-01T10:59:42.855Z,32.10
2019-06-01T11:02:09.592Z,32.00
2019-06-01T11:04:37.048Z,31.50
2019-06-01T11:07:04.003Z,31.00
2019-06-01T11:09:30.584Z,30.70
2019-06-01T11:11:57.058Z,30.60
2019-06-01T11:14:23.562Z,30.20
2019-06-01T11:16:55.750Z,30.00
2019-06-01T11:19:18.111Z,29.80
2019-06-01T11:21:44.534Z,29.40
2019-06-01T11:24:11.142Z,29.10
2019-06-01T11:26:37.687Z,28.80
2019-06-01T11:29:04.460Z,28.70
2019-06-01T11:31:30.789Z,28.60
2019-06-01T11:33:57.230Z,28.50
2019-06-01T11:36:23.535Z,28.20
2019-06-01T11:38:50.196Z,28.40
2019-06-01T11:41:18.630Z,28.50
2019-06-01T11:43:46.155Z,28.50
2019-06-01T11:46:12.663Z,28.40
2019-06-01T11:48:39.339Z,28.40
2019-06-01T11:51:05.938Z,28.40
2019-06-01T11:53:32.662Z,28.40
2019-06-01T11:55:59.194Z,28.30
2019-06-01T11:58:25.511Z,28.20
2019-06-01T12:00:51.883Z,28.10
2019-06-01T12:03:18.271Z,28.00
2019-06-01T12:05:44.538Z,28.00
2019-06-01T12:08:10.830Z,27.90
2019-06-01T12:10:37.220Z,27.80
2019-06-01T12:13:03.619Z,27.80
2019-06-01T12:15:30.023Z,28.00
2019-06-01T12:17:56.603Z,27.90
2019-06-01T12:20:23.147Z,27.80
2019-06-01T12:22:49.463Z,27.50
2019-06-01T12:25:15.844Z,27.50
2019-06-01T12:27:43.567Z,27.20
2019-06-01T12:30:10.908Z,26.90
2019-06-01T12:32:37.923Z,26.90
2019-06-01T12:35:07.369Z,26.60
2019-06-01T12:37:52.420Z,26.70
2019-06-01T12:40:07.470Z,26.60
2019-06-01T12:42:32.158Z,26.50
2019-06-01T12:44:58.674Z,26.30
2019-06-01T12:47:25.780Z,26.20
2019-06-01T12:49:52.695Z,26.10
2019-06-01T12:52:19.565Z,25.80
2019-06-01T12:54:46.727Z,26.00
2019-06-01T12:57:13.476Z,25.80
2019-06-01T12:59:41.081Z,25.90
2019-06-01T13:02:07.726Z,26.10
2019-06-01T13:04:34.115Z,26.30
2019-06-01T13:07:00.598Z,26.30
2019-06-01T13:09:27.066Z,26.30
2019-06-01T13:11:53.445Z,26.20
2019-06-01T13:14:19.840Z,26.30
2019-06-01T13:16:50.704Z,26.60
2019-06-01T13:19:14.745Z,26.60
2019-06-01T13:21:41.410Z,26.60
2019-06-01T13:24:07.930Z,26.60
2019-06-01T13:26:34.231Z,26.60
2019-06-01T13:29:00.875Z,26.70
2019-06-01T13:31:28.263Z,26.20
2019-06-01T13:33:54.577Z,26.50
2019-06-01T13:36:21.062Z,26.40
2019-06-01T13:38:47.318Z,26.50
2019-06-01T13:41:13.628Z,26.50
2019-06-01T13:43:39.986Z,26.40
2019-06-01T13:46:06.856Z,26.40
2019-06-01T13:48:33.778Z,26.20
2019-06-01T13:51:00.176Z,26.40
2019-06-01T13:53:26.637Z,26.00
2019-06-01T13:55:53.025Z,26.00
2019-06-01T13:58:19.300Z,26.00
2019-06-01T14:00:46.341Z,26.20
2019-06-01T14:03:12.691Z,26.40
2019-06-01T14:05:39.157Z,26.30
2019-06-01T14:08:05.642Z,26.30
2019-06-01T14:10:32.094Z,26.10
2019-06-01T14:12:58.483Z,26.10
2019-06-01T14:15:25.059Z,26.20
2019-06-01T14:17:52.345Z,26.20
2019-06-01T14:20:19.289Z,26.20
2019-06-01T14:22:45.873Z,26.00
2019-06-01T14:25:15.015Z,26.10
2019-06-01T14:27:40.624Z,26.20
2019-06-01T14:30:07.619Z,26.20
2019-06-01T14:32:34.223Z,26.20
2019-06-01T14:35:00.559Z,26.10
2019-06-01T14:37:26.821Z,26.10
2019-06-01T14:39:54.963Z,26.20
2019-06-01T14:42:21.665Z,26.10
2019-06-01T14:44:49.226Z,26.20
2019-06-01T14:47:18.609Z,26.20
2019-06-01T14:49:44.208Z,26.40
2019-06-01T14:52:10.471Z,26.50
2019-06-01T14:54:36.769Z,26.60
2019-06-01T14:57:03.698Z,26.70
2019-06-01T14:59:30.095Z,26.70
2019-06-01T15:01:56.483Z,26.60
2019-06-01T15:04:22.790Z,26.50
2019-06-01T15:06:50.227Z,26.50
2019-06-01T15:09:19.315Z,26.50
2019-06-01T15:11:45.662Z,26.60
2019-06-01T15:14:12.255Z,26.60
2019-06-01T15:16:38.815Z,26.70
2019-06-01T15:19:05.192Z,26.70
2019-06-01T15:21:31.487Z,26.70
2019-06-01T15:23:58.765Z,26.60
2019-06-01T15:26:25.371Z,26.70
2019-06-01T15:28:53.056Z,26.70
2019-06-01T15:31:19.571Z,26.50
2019-06-01T15:33:45.936Z,26.70
2019-06-01T15:36:12.482Z,26.70
2019-06-01T15:38:38.745Z,26.80
2019-06-01T15:41:05.223Z,26.90
2019-06-01T15:43:31.686Z,26.90
2019-06-01T15:45:57.976Z,26.90
2019-06-01T15:48:24.344Z,26.80
2019-06-01T15:50:51.583Z,26.90
2019-06-01T15:53:18.015Z,26.90
2019-06-01T15:55:44.611Z,26.80
2019-06-01T15:58:11.007Z,26.70
2019-06-01T16:00:38.003Z,26.70
2019-06-01T16:03:04.399Z,26.80
2019-06-01T16:05:30.991Z,26.80
2019-06-01T16:07:59.296Z,26.80
2019-06-01T16:10:25.724Z,26.90
2019-06-01T16:12:53.272Z,26.70
2019-06-01T16:15:19.687Z,26.80
2019-06-01T16:17:46.070Z,26.80
2019-06-01T16:20:13.057Z,26.70
2019-06-01T16:22:39.577Z,26.90
2019-06-01T16:25:07.851Z,27.00
2019-06-01T16:27:34.344Z,27.00
2019-06-01T16:30:02.404Z,26.90
2019-06-01T16:32:29.843Z,26.90
2019-06-01T16:34:56.899Z,27.00
2019-06-01T16:37:23.719Z,27.00
2019-06-01T16:39:58.675Z,27.10
2019-06-01T16:42:18.199Z,27.00
2019-06-01T16:44:44.815Z,27.00
2019-06-01T16:47:11.390Z,27.10
2019-06-01T16:49:37.932Z,27.40
2019-06-01T16:52:05.191Z,27.40
2019-06-01T16:54:31.847Z,27.50
2019-06-01T16:56:58.470Z,27.50
2019-06-01T16:59:25.071Z,27.60
2019-06-01T17:01:51.684Z,27.70
2019-06-01T17:04:18.591Z,27.80
2019-06-01T17:06:45.091Z,27.80
2019-06-01T17:09:11.752Z,27.80
2019-06-01T17:11:38.209Z,27.70
2019-06-01T17:14:05.258Z,27.70
2019-06-01T17:16:31.634Z,27.60
2019-06-01T17:18:58.952Z,27.80
2019-06-01T17:21:25.594Z,27.90
2019-06-01T17:23:52.202Z,27.90
2019-06-01T17:26:18.572Z,27.90
2019-06-01T17:28:44.864Z,28.00
2019-06-01T17:31:11.636Z,28.00
2019-06-01T17:33:38.020Z,28.10
2019-06-01T17:36:04.775Z,28.10
2019-06-01T17:38:31.512Z,28.30
2019-06-01T17:40:57.874Z,28.60
2019-06-01T17:43:24.271Z,28.40
2019-06-01T17:45:50.641Z,28.60
2019-06-01T17:48:25.659Z,28.40
2019-06-01T17:50:45.489Z,28.60
2019-06-01T17:53:13.045Z,28.80
2019-06-01T17:55:39.671Z,28.90
2019-06-01T17:58:07.678Z,29.00
2019-06-01T18:00:35.063Z,29.00
2019-06-01T18:03:01.758Z,29.20
2019-06-01T18:05:28.646Z,29.20
2019-06-01T18:07:55.126Z,29.10
2019-06-01T18:10:22.830Z,29.20
2019-06-01T18:12:50.725Z,29.30
2019-06-01T18:15:17.691Z,29.50
2019-06-01T18:17:44.214Z,29.50
2019-06-01T18:20:11.035Z,29.50
2019-06-01T18:22:37.492Z,29.70
2019-06-01T18:25:06.341Z,29.70
2019-06-01T18:27:33.406Z,29.90
2019-06-01T18:30:00.076Z,30.00
2019-06-01T18:32:26.874Z,30.10
2019-06-01T18:34:53.565Z,30.20
2019-06-01T18:37:19.827Z,30.20
2019-06-01T18:39:48.127Z,30.10
2019-06-01T18:42:18.065Z,30.40
2019-06-01T18:44:43.086Z,30.60
2019-06-01T18:47:09.769Z,30.70
2019-06-01T18:49:36.650Z,30.70
2019-06-01T18:52:04.125Z,30.80
2019-06-01T18:54:30.615Z,30.80
2019-06-01T18:57:09.653Z,31.00
2019-06-01T18:59:25.155Z,31.00
2019-06-01T19:01:51.519Z,31.00
2019-06-01T19:04:17.918Z,31.20
2019-06-01T19:06:44.283Z,31.10
2019-06-01T19:09:11.304Z,31.20
2019-06-01T19:11:37.654Z,31.20
2019-06-01T19:14:03.929Z,31.20
2019-06-01T19:16:30.197Z,31.30
2019-06-01T19:18:56.603Z,31.40
2019-06-01T19:21:22.970Z,31.50
2019-06-01T19:23:49.571Z,31.60
2019-06-01T19:26:17.809Z,31.60
2019-06-01T19:28:44.426Z,31.70
2019-06-01T19:31:11.295Z,31.70
2019-06-01T19:33:37.987Z,31.70
2019-06-01T19:36:04.585Z,31.80
2019-06-01T19:38:31.768Z,31.90
2019-06-01T19:40:58.505Z,32.00
2019-06-01T19:43:24.792Z,32.20
2019-06-01T19:45:51.367Z,32.30
2019-06-01T19:48:19.092Z,32.30
2019-06-01T19:50:45.777Z,32.40
2019-06-01T19:53:12.680Z,32.50
2019-06-01T19:55:39.458Z,32.70
2019-06-01T19:58:05.942Z,32.80
2019-06-01T20:00:32.430Z,32.90
2019-06-01T20:02:59.086Z,33.10
2019-06-01T20:05:25.469Z,33.20
2019-06-01T20:07:52.157Z,33.20
2019-06-01T20:10:19.004Z,33.40
2019-06-01T20:12:46.398Z,33.40
2019-06-01T20:15:13.299Z,33.60
2019-06-01T20:17:39.851Z,33.80
2019-06-01T20:20:07.374Z,33.80
2019-06-01T20:22:33.791Z,34.00
2019-06-01T20:25:00.182Z,34.00
2019-06-01T20:27:26.784Z,34.70
2019-06-01T20:29:53.359Z,34.40
2019-06-01T20:32:20.063Z,34.90
2019-06-01T20:34:46.802Z,34.60
2019-06-01T20:37:13.930Z,34.70
2019-06-01T20:39:40.351Z,34.80
2019-06-01T20:42:20.986Z,35.00
2019-06-01T20:44:35.024Z,35.10
2019-06-01T20:47:01.518Z,35.20
2019-06-01T20:49:27.895Z,35.30
2019-06-01T20:51:54.283Z,35.40
2019-06-01T20:54:21.098Z,35.50
2019-06-01T20:56:47.574Z,35.60
2019-06-01T20:59:17.207Z,35.80
2019-06-01T21:01:42.223Z,35.90
2019-06-01T21:04:08.859Z,36.00
2019-06-01T21:06:35.217Z,36.20
2019-06-01T21:09:01.596Z,36.20
2019-06-01T21:11:29.972Z,36.30
2019-06-01T21:13:56.358Z,36.40
2019-06-01T21:16:22.648Z,36.40
2019-06-01T21:18:49.034Z,36.50
2019-06-01T21:21:16.353Z,36.60
2019-06-01T21:23:42.815Z,36.70
2019-06-01T21:26:09.486Z,36.90
2019-06-01T21:28:35.886Z,37.00
2019-06-01T21:31:02.558Z,37.10
2019-06-01T21:33:29.190Z,37.10
2019-06-01T21:35:55.684Z,37.20
2019-06-01T21:38:23.574Z,37.40
2019-06-01T21:40:50.238Z,37.50
2019-06-01T21:43:27.485Z,37.50
2019-06-01T21:45:45.689Z,37.60
2019-06-01T21:48:12.183Z,37.70
2019-06-01T21:50:38.450Z,37.80
2019-06-01T21:53:05.059Z,37.90
2019-06-01T21:55:31.326Z,38.00
2019-06-01T21:57:57.620Z,38.10
2019-06-01T22:00:29.800Z,38.20
2019-06-01T22:02:58.470Z,38.30
2019-06-01T22:05:25.370Z,38.30
2019-06-01T22:07:52.158Z,38.40
2019-06-01T22:10:19.099Z,38.50
2019-06-01T22:12:45.986Z,38.70
2019-06-01T22:15:13.550Z,38.70
2019-06-01T22:17:39.830Z,38.80
2019-06-01T22:20:06.536Z,38.90
2019-06-01T22:22:33.236Z,38.90
2019-06-01T22:24:59.729Z,39.00
2019-06-01T22:27:26.401Z,39.10
2019-06-01T22:29:53.235Z,39.20
2019-06-01T22:32:23.077Z,39.30
2019-06-01T22:34:48.342Z,39.40
2019-06-01T22:37:14.621Z,39.50
2019-06-01T22:39:41.102Z,39.60
2019-06-01T22:42:07.400Z,39.60
2019-06-01T22:44:34.101Z,39.70
2019-06-01T22:47:00.538Z,40.20
2019-06-01T22:49:28.832Z,39.80
2019-06-01T22:51:55.291Z,39.90
2019-06-01T22:54:22.756Z,40.00
2019-06-01T22:56:49.961Z,40.20
2019-06-01T22:59:16.335Z,40.20
2019-06-01T23:01:42.709Z,40.20
2019-06-01T23:04:09.447Z,40.30
2019-06-01T23:06:36.089Z,40.40
2019-06-01T23:09:06.255Z,40.50
2019-06-01T23:11:32.549Z,40.60
2019-06-01T23:13:58.819Z,40.70
2019-06-01T23:16:25.605Z,40.70
2019-06-01T23:18:52.371Z,41.00
2019-06-01T23:21:18.816Z,40.90
2019-06-01T23:23:45.341Z,41.00
2019-06-01T23:26:11.766Z,41.00
2019-06-01T23:28:38.894Z,41.00
2019-06-01T23:31:05.384Z,41.10
2019-06-01T23:33:32.973Z,41.20
2019-06-01T23:35:59.582Z,41.30
2019-06-01T23:38:26.605Z,41.40
2019-06-01T23:40:53.351Z,41.50
2019-06-01T23:43:19.744Z,41.60
2019-06-01T23:45:46.411Z,41.60
2019-06-01T23:48:12.796Z,41.70
2019-06-01T23:50:39.171Z,41.90
2019-06-01T23:53:13.610Z,42.00
2019-06-01T23:55:34.119Z,42.00
2019-06-01T23:58:00.620Z,42.00
